sensor_id;sensor_type;location;lat;lon;timestamp;temperature;humidity
68924;DHT22;55961;52.156;20.942;2022-11-18T00:01:21;-1.10;68.60
68924;DHT22;55961;52.156;20.942;2022-11-18T00:03:48;-1.00;68.30
68924;DHT22;55961;52.156;20.942;2022-11-18T00:06:16;-1.00;68.10
68924;DHT22;55961;52.156;20.942;2022-11-18T00:08:43;-1.00;67.80
68924;DHT22;55961;52.156;20.942;2022-11-18T00:11:11;-0.90;67.50
68924;DHT22;55961;52.156;20.942;2022-11-18T00:13:38;-1.00;67.30
68924;DHT22;55961;52.156;20.942;2022-11-18T00:16:22;-1.00;67.20
68924;DHT22;55961;52.156;20.942;2022-11-18T00:18:48;-0.90;67.10
68924;DHT22;55961;52.156;20.942;2022-11-18T00:21:14;-0.90;67.10
68924;DHT22;55961;52.156;20.942;2022-11-18T00:23:40;-0.90;67.00
68924;DHT22;55961;52.156;20.942;2022-11-18T00:26:11;-0.90;67.10
68924;DHT22;55961;52.156;20.942;2022-11-18T00:28:38;-0.90;67.10
68924;DHT22;55961;52.156;20.942;2022-11-18T00:31:07;-0.80;66.90
68924;DHT22;55961;52.156;20.942;2022-11-18T00:33:33;-0.80;66.60
68924;DHT22;55961;52.156;20.942;2022-11-18T00:36:03;-0.80;66.50
68924;DHT22;55961;52.156;20.942;2022-11-18T00:38:29;-0.80;66.30
68924;DHT22;55961;52.156;20.942;2022-11-18T00:41:06;-0.80;66.40
68924;DHT22;55961;52.156;20.942;2022-11-18T00:43:32;-0.80;66.50
68924;DHT22;55961;52.156;20.942;2022-11-18T00:45:59;-0.80;66.70
68924;DHT22;55961;52.156;20.942;2022-11-18T00:48:25;-0.80;66.60
68924;DHT22;55961;52.156;20.942;2022-11-18T00:50:53;-0.70;66.40
68924;DHT22;55961;52.156;20.942;2022-11-18T00:53:21;-0.70;66.10
68924;DHT22;55961;52.156;20.942;2022-11-18T00:55:47;-0.70;66.10
68924;DHT22;55961;52.156;20.942;2022-11-18T00:58:13;-0.70;66.10
68924;DHT22;55961;52.156;20.942;2022-11-18T01:00:41;-0.70;66.00
68924;DHT22;55961;52.156;20.942;2022-11-18T01:03:09;-0.70;65.90
68924;DHT22;55961;52.156;20.942;2022-11-18T01:05:35;-0.70;65.80
68924;DHT22;55961;52.156;20.942;2022-11-18T01:08:02;-0.70;65.80
68924;DHT22;55961;52.156;20.942;2022-11-18T01:10:28;-0.70;65.30
68924;DHT22;55961;52.156;20.942;2022-11-18T01:12:54;-0.70;65.00
68924;DHT22;55961;52.156;20.942;2022-11-18T01:15:40;-0.70;65.20
68924;DHT22;55961;52.156;20.942;2022-11-18T01:18:06;-0.70;65.00
68924;DHT22;55961;52.156;20.942;2022-11-18T01:20:33;-0.70;64.90
68924;DHT22;55961;52.156;20.942;2022-11-18T01:22:59;-0.70;65.20
68924;DHT22;55961;52.156;20.942;2022-11-18T01:25:26;-0.70;65.20
68924;DHT22;55961;52.156;20.942;2022-11-18T01:27:52;-0.70;65.10
68924;DHT22;55961;52.156;20.942;2022-11-18T01:30:18;-0.70;65.00
68924;DHT22;55961;52.156;20.942;2022-11-18T01:32:44;-0.70;65.20
68924;DHT22;55961;52.156;20.942;2022-11-18T01:35:11;-0.70;65.40
68924;DHT22;55961;52.156;20.942;2022-11-18T01:37:37;-0.70;65.20
68924;DHT22;55961;52.156;20.942;2022-11-18T01:40:07;-0.60;65.30
68924;DHT22;55961;52.156;20.942;2022-11-18T01:42:34;-0.70;65.60
68924;DHT22;55961;52.156;20.942;2022-11-18T01:45:14;-0.60;65.50
68924;DHT22;55961;52.156;20.942;2022-11-18T01:47:47;-0.60;65.30
68924;DHT22;55961;52.156;20.942;2022-11-18T01:50:15;-0.60;65.10
68924;DHT22;55961;52.156;20.942;2022-11-18T01:52:42;-0.60;65.10
68924;DHT22;55961;52.156;20.942;2022-11-18T01:55:13;-0.60;65.10
68924;DHT22;55961;52.156;20.942;2022-11-18T01:57:41;-0.60;65.00
68924;DHT22;55961;52.156;20.942;2022-11-18T02:00:09;-0.60;65.20
68924;DHT22;55961;52.156;20.942;2022-11-18T02:02:36;-0.60;65.40
68924;DHT22;55961;52.156;20.942;2022-11-18T02:05:05;-0.60;65.50
68924;DHT22;55961;52.156;20.942;2022-11-18T02:07:34;-0.60;65.70
68924;DHT22;55961;52.156;20.942;2022-11-18T02:10:04;-0.60;65.50
68924;DHT22;55961;52.156;20.942;2022-11-18T02:12:31;-0.70;65.70
68924;DHT22;55961;52.156;20.942;2022-11-18T02:14:58;-0.60;65.90
68924;DHT22;55961;52.156;20.942;2022-11-18T02:17:39;-0.60;66.00
68924;DHT22;55961;52.156;20.942;2022-11-18T02:31:07;-0.60;66.60
68924;DHT22;55961;52.156;20.942;2022-11-18T02:33:38;-0.60;66.40
68924;DHT22;55961;52.156;20.942;2022-11-18T02:36:15;-0.60;66.40
68924;DHT22;55961;52.156;20.942;2022-11-18T02:38:45;-0.60;66.50
68924;DHT22;55961;52.156;20.942;2022-11-18T02:41:20;-0.60;66.70
68924;DHT22;55961;52.156;20.942;2022-11-18T02:44:12;-0.60;66.70
68924;DHT22;55961;52.156;20.942;2022-11-18T02:46:40;-0.60;66.80
68924;DHT22;55961;52.156;20.942;2022-11-18T02:49:54;-0.60;66.80
68924;DHT22;55961;52.156;20.942;2022-11-18T02:52:00;-0.60;66.90
68924;DHT22;55961;52.156;20.942;2022-11-18T02:54:27;-0.60;67.00
68924;DHT22;55961;52.156;20.942;2022-11-18T02:56:54;-0.60;66.80
68924;DHT22;55961;52.156;20.942;2022-11-18T02:59:20;-0.50;66.90
68924;DHT22;55961;52.156;20.942;2022-11-18T03:01:46;-0.50;67.10
68924;DHT22;55961;52.156;20.942;2022-11-18T03:04:13;-0.50;67.10
68924;DHT22;55961;52.156;20.942;2022-11-18T03:06:44;-0.60;67.10
68924;DHT22;55961;52.156;20.942;2022-11-18T03:09:40;-0.60;67.40
68924;DHT22;55961;52.156;20.942;2022-11-18T03:12:42;-0.60;67.40
68924;DHT22;55961;52.156;20.942;2022-11-18T03:20:39;-0.60;67.20
68924;DHT22;55961;52.156;20.942;2022-11-18T03:23:19;-0.60;67.40
68924;DHT22;55961;52.156;20.942;2022-11-18T03:26:00;-0.60;67.30
68924;DHT22;55961;52.156;20.942;2022-11-18T03:31:23;-0.60;67.40
68924;DHT22;55961;52.156;20.942;2022-11-18T03:33:59;-0.60;67.40
68924;DHT22;55961;52.156;20.942;2022-11-18T03:36:31;-0.60;67.60
68924;DHT22;55961;52.156;20.942;2022-11-18T03:38:59;-0.50;67.90
68924;DHT22;55961;52.156;20.942;2022-11-18T03:41:27;-0.60;68.00
68924;DHT22;55961;52.156;20.942;2022-11-18T03:44:04;-0.60;68.10
68924;DHT22;55961;52.156;20.942;2022-11-18T03:46:39;-0.50;68.20
68924;DHT22;55961;52.156;20.942;2022-11-18T03:49:10;-0.50;68.00
68924;DHT22;55961;52.156;20.942;2022-11-18T03:51:43;-0.50;68.00
68924;DHT22;55961;52.156;20.942;2022-11-18T03:54:16;-0.60;68.10
68924;DHT22;55961;52.156;20.942;2022-11-18T03:56:47;-0.50;67.90
68924;DHT22;55961;52.156;20.942;2022-11-18T03:59:17;-0.50;68.00
68924;DHT22;55961;52.156;20.942;2022-11-18T04:01:50;-0.60;68.00
68924;DHT22;55961;52.156;20.942;2022-11-18T04:04:18;-0.50;68.10
68924;DHT22;55961;52.156;20.942;2022-11-18T04:06:51;-0.60;68.10
68924;DHT22;55961;52.156;20.942;2022-11-18T04:09:23;-0.60;68.30
68924;DHT22;55961;52.156;20.942;2022-11-18T04:11:54;-0.60;68.50
68924;DHT22;55961;52.156;20.942;2022-11-18T04:14:35;-0.60;68.80
68924;DHT22;55961;52.156;20.942;2022-11-18T04:17:08;-0.60;68.50
68924;DHT22;55961;52.156;20.942;2022-11-18T04:19:36;-0.60;68.60
68924;DHT22;55961;52.156;20.942;2022-11-18T04:22:01;-0.60;68.80
68924;DHT22;55961;52.156;20.942;2022-11-18T04:24:28;-0.60;68.90
68924;DHT22;55961;52.156;20.942;2022-11-18T04:26:53;-0.60;69.30
68924;DHT22;55961;52.156;20.942;2022-11-18T04:29:19;-0.70;69.50
68924;DHT22;55961;52.156;20.942;2022-11-18T04:31:45;-0.70;69.80
68924;DHT22;55961;52.156;20.942;2022-11-18T04:34:11;-0.70;69.80
68924;DHT22;55961;52.156;20.942;2022-11-18T04:36:37;-0.70;70.30
68924;DHT22;55961;52.156;20.942;2022-11-18T04:39:03;-0.70;70.30
68924;DHT22;55961;52.156;20.942;2022-11-18T04:41:29;-0.80;70.20
68924;DHT22;55961;52.156;20.942;2022-11-18T04:44:14;-0.70;69.50
68924;DHT22;55961;52.156;20.942;2022-11-18T04:46:41;-0.80;69.70
68924;DHT22;55961;52.156;20.942;2022-11-18T04:49:08;-0.80;70.00
68924;DHT22;55961;52.156;20.942;2022-11-18T04:51:34;-0.90;70.20
68924;DHT22;55961;52.156;20.942;2022-11-18T04:54:01;-0.90;70.40
68924;DHT22;55961;52.156;20.942;2022-11-18T04:56:27;-0.90;70.60
68924;DHT22;55961;52.156;20.942;2022-11-18T04:58:53;-0.90;70.90
68924;DHT22;55961;52.156;20.942;2022-11-18T05:01:19;-0.90;71.40
68924;DHT22;55961;52.156;20.942;2022-11-18T05:03:45;-0.90;71.60
68924;DHT22;55961;52.156;20.942;2022-11-18T05:06:11;-0.90;71.90
68924;DHT22;55961;52.156;20.942;2022-11-18T05:08:38;-0.90;72.10
68924;DHT22;55961;52.156;20.942;2022-11-18T05:11:07;-0.90;72.10
68924;DHT22;55961;52.156;20.942;2022-11-18T05:13:52;-1.00;71.90
68924;DHT22;55961;52.156;20.942;2022-11-18T05:16:17;-1.00;71.80
68924;DHT22;55961;52.156;20.942;2022-11-18T05:18:44;-1.00;72.00
68924;DHT22;55961;52.156;20.942;2022-11-18T05:21:09;-1.00;72.30
68924;DHT22;55961;52.156;20.942;2022-11-18T05:23:36;-1.00;72.20
68924;DHT22;55961;52.156;20.942;2022-11-18T05:26:06;-1.00;72.10
68924;DHT22;55961;52.156;20.942;2022-11-18T05:28:32;-1.00;72.50
68924;DHT22;55961;52.156;20.942;2022-11-18T05:30:58;-1.00;72.50
68924;DHT22;55961;52.156;20.942;2022-11-18T05:33:24;-1.10;72.30
68924;DHT22;55961;52.156;20.942;2022-11-18T05:35:49;-1.10;72.10
68924;DHT22;55961;52.156;20.942;2022-11-18T05:38:16;-1.10;72.00
68924;DHT22;55961;52.156;20.942;2022-11-18T05:40:42;-1.10;72.00
68924;DHT22;55961;52.156;20.942;2022-11-18T05:43:09;-1.10;72.00
68924;DHT22;55961;52.156;20.942;2022-11-18T05:45:38;-1.10;72.20
68924;DHT22;55961;52.156;20.942;2022-11-18T05:48:05;-1.20;72.40
68924;DHT22;55961;52.156;20.942;2022-11-18T05:50:33;-1.20;72.70
68924;DHT22;55961;52.156;20.942;2022-11-18T05:53:00;-1.20;72.80
68924;DHT22;55961;52.156;20.942;2022-11-18T05:55:30;-1.20;72.70
68924;DHT22;55961;52.156;20.942;2022-11-18T05:57:59;-1.20;72.70
68924;DHT22;55961;52.156;20.942;2022-11-18T06:00:24;-1.20;72.80
68924;DHT22;55961;52.156;20.942;2022-11-18T06:02:53;-1.20;72.70
68924;DHT22;55961;52.156;20.942;2022-11-18T06:05:20;-1.20;72.40
68924;DHT22;55961;52.156;20.942;2022-11-18T06:07:47;-1.20;72.00
68924;DHT22;55961;52.156;20.942;2022-11-18T06:10:32;-1.20;72.00
68924;DHT22;55961;52.156;20.942;2022-11-18T06:13:04;-1.10;72.20
68924;DHT22;55961;52.156;20.942;2022-11-18T06:15:39;-1.20;72.30
68924;DHT22;55961;52.156;20.942;2022-11-18T06:18:20;-1.10;72.50
68924;DHT22;55961;52.156;20.942;2022-11-18T06:20:46;-1.10;75.90
68924;DHT22;55961;52.156;20.942;2022-11-18T06:23:12;-1.10;74.30
68924;DHT22;55961;52.156;20.942;2022-11-18T06:25:39;-1.10;73.20
68924;DHT22;55961;52.156;20.942;2022-11-18T06:28:06;-1.10;72.50
68924;DHT22;55961;52.156;20.942;2022-11-18T06:30:34;-1.10;72.00
68924;DHT22;55961;52.156;20.942;2022-11-18T06:32:59;-1.00;71.70
68924;DHT22;55961;52.156;20.942;2022-11-18T06:35:25;-1.00;71.30
68924;DHT22;55961;52.156;20.942;2022-11-18T06:37:51;-1.00;70.80
68924;DHT22;55961;52.156;20.942;2022-11-18T06:40:17;-1.10;70.30
68924;DHT22;55961;52.156;20.942;2022-11-18T06:42:48;-1.10;70.40
68924;DHT22;55961;52.156;20.942;2022-11-18T06:45:32;-1.10;70.10
68924;DHT22;55961;52.156;20.942;2022-11-18T06:47:59;-1.10;69.80
68924;DHT22;55961;52.156;20.942;2022-11-18T06:50:29;-1.10;69.90
68924;DHT22;55961;52.156;20.942;2022-11-18T06:52:55;-1.10;70.40
68924;DHT22;55961;52.156;20.942;2022-11-18T06:55:24;-1.10;70.20
68924;DHT22;55961;52.156;20.942;2022-11-18T06:57:50;-1.10;70.30
68924;DHT22;55961;52.156;20.942;2022-11-18T07:00:16;-1.10;70.50
68924;DHT22;55961;52.156;20.942;2022-11-18T07:02:42;-1.10;70.60
68924;DHT22;55961;52.156;20.942;2022-11-18T07:05:08;-1.10;70.60
68924;DHT22;55961;52.156;20.942;2022-11-18T07:07:34;-1.10;70.70
68924;DHT22;55961;52.156;20.942;2022-11-18T07:10:00;-1.10;70.50
68924;DHT22;55961;52.156;20.942;2022-11-18T07:12:26;-1.10;70.60
68924;DHT22;55961;52.156;20.942;2022-11-18T07:14:52;-1.00;70.20
68924;DHT22;55961;52.156;20.942;2022-11-18T07:17:18;-1.00;70.30
68924;DHT22;55961;52.156;20.942;2022-11-18T07:19:44;-1.00;70.50
68924;DHT22;55961;52.156;20.942;2022-11-18T07:22:10;-1.00;70.30
68924;DHT22;55961;52.156;20.942;2022-11-18T07:24:36;-1.00;70.30
68924;DHT22;55961;52.156;20.942;2022-11-18T07:27:02;-1.00;70.50
68924;DHT22;55961;52.156;20.942;2022-11-18T07:29:28;-1.00;70.30
68924;DHT22;55961;52.156;20.942;2022-11-18T07:31:54;-1.00;70.10
68924;DHT22;55961;52.156;20.942;2022-11-18T07:34:20;-1.00;70.10
68924;DHT22;55961;52.156;20.942;2022-11-18T07:36:46;-1.00;69.70
68924;DHT22;55961;52.156;20.942;2022-11-18T07:39:12;-1.00;69.60
68924;DHT22;55961;52.156;20.942;2022-11-18T07:41:38;-1.00;69.70
68924;DHT22;55961;52.156;20.942;2022-11-18T07:44:04;-0.90;69.80
68924;DHT22;55961;52.156;20.942;2022-11-18T07:46:34;-0.90;69.70
68924;DHT22;55961;52.156;20.942;2022-11-18T07:49:02;-0.90;69.90
68924;DHT22;55961;52.156;20.942;2022-11-18T07:51:32;-0.90;70.40
68924;DHT22;55961;52.156;20.942;2022-11-18T07:53:59;-0.90;70.60
68924;DHT22;55961;52.156;20.942;2022-11-18T07:56:26;-0.90;70.50
68924;DHT22;55961;52.156;20.942;2022-11-18T07:58:52;-0.90;70.40
68924;DHT22;55961;52.156;20.942;2022-11-18T08:01:21;-0.90;70.30
68924;DHT22;55961;52.156;20.942;2022-11-18T08:03:47;-0.80;70.00
68924;DHT22;55961;52.156;20.942;2022-11-18T08:06:15;-0.80;69.90
68924;DHT22;55961;52.156;20.942;2022-11-18T08:08:41;-0.80;70.00
68924;DHT22;55961;52.156;20.942;2022-11-18T08:11:10;-0.80;69.70
68924;DHT22;55961;52.156;20.942;2022-11-18T08:13:36;-0.70;69.20
68924;DHT22;55961;52.156;20.942;2022-11-18T08:16:03;-0.70;69.20
68924;DHT22;55961;52.156;20.942;2022-11-18T08:18:30;-0.70;69.00
68924;DHT22;55961;52.156;20.942;2022-11-18T08:21:03;-0.70;68.80
68924;DHT22;55961;52.156;20.942;2022-11-18T08:23:29;-0.60;68.60
68924;DHT22;55961;52.156;20.942;2022-11-18T08:26:07;-0.60;67.90
68924;DHT22;55961;52.156;20.942;2022-11-18T08:28:33;-0.60;67.60
68924;DHT22;55961;52.156;20.942;2022-11-18T08:30:59;-0.60;67.80
68924;DHT22;55961;52.156;20.942;2022-11-18T08:33:25;-0.60;67.70
68924;DHT22;55961;52.156;20.942;2022-11-18T08:35:52;-0.50;67.60
68924;DHT22;55961;52.156;20.942;2022-11-18T08:38:17;-0.50;67.60
68924;DHT22;55961;52.156;20.942;2022-11-18T08:40:45;-0.50;67.50
68924;DHT22;55961;52.156;20.942;2022-11-18T08:43:12;-0.50;67.20
68924;DHT22;55961;52.156;20.942;2022-11-18T08:45:39;-0.50;67.10
68924;DHT22;55961;52.156;20.942;2022-11-18T08:48:05;-0.40;67.40
68924;DHT22;55961;52.156;20.942;2022-11-18T08:50:31;-0.40;67.10
68924;DHT22;55961;52.156;20.942;2022-11-18T08:52:57;-0.40;66.80
68924;DHT22;55961;52.156;20.942;2022-11-18T08:55:23;-0.40;66.70
68924;DHT22;55961;52.156;20.942;2022-11-18T08:57:48;-0.30;66.40
68924;DHT22;55961;52.156;20.942;2022-11-18T09:00:15;-0.30;66.50
68924;DHT22;55961;52.156;20.942;2022-11-18T09:02:41;-0.30;66.50
68924;DHT22;55961;52.156;20.942;2022-11-18T09:05:07;-0.30;66.50
68924;DHT22;55961;52.156;20.942;2022-11-18T09:07:33;-0.20;66.30
68924;DHT22;55961;52.156;20.942;2022-11-18T09:09:59;-0.20;66.10
68924;DHT22;55961;52.156;20.942;2022-11-18T09:12:24;-0.20;66.00
68924;DHT22;55961;52.156;20.942;2022-11-18T09:14:50;-0.20;66.00
68924;DHT22;55961;52.156;20.942;2022-11-18T09:17:16;-0.10;65.70
68924;DHT22;55961;52.156;20.942;2022-11-18T09:20:02;-0.10;65.60
68924;DHT22;55961;52.156;20.942;2022-11-18T09:22:28;-0.10;65.30
68924;DHT22;55961;52.156;20.942;2022-11-18T09:24:54;-0.10;65.30
68924;DHT22;55961;52.156;20.942;2022-11-18T09:27:20;0.00;65.50
68924;DHT22;55961;52.156;20.942;2022-11-18T09:29:46;0.00;65.50
68924;DHT22;55961;52.156;20.942;2022-11-18T09:32:11;0.00;65.60
68924;DHT22;55961;52.156;20.942;2022-11-18T09:34:38;0.00;64.80
68924;DHT22;55961;52.156;20.942;2022-11-18T09:37:04;0.00;64.70
68924;DHT22;55961;52.156;20.942;2022-11-18T09:39:33;0.10;64.80
68924;DHT22;55961;52.156;20.942;2022-11-18T09:42:29;0.10;64.70
68924;DHT22;55961;52.156;20.942;2022-11-18T09:45:15;0.10;64.80
68924;DHT22;55961;52.156;20.942;2022-11-18T09:47:42;0.10;64.70
68924;DHT22;55961;52.156;20.942;2022-11-18T09:50:18;0.20;64.70
68924;DHT22;55961;52.156;20.942;2022-11-18T09:53:02;0.20;64.70
68924;DHT22;55961;52.156;20.942;2022-11-18T09:55:30;0.20;64.30
68924;DHT22;55961;52.156;20.942;2022-11-18T09:57:58;0.20;63.90
68924;DHT22;55961;52.156;20.942;2022-11-18T10:00:26;0.30;63.80
68924;DHT22;55961;52.156;20.942;2022-11-18T10:03:15;0.20;63.40
68924;DHT22;55961;52.156;20.942;2022-11-18T10:05:59;0.30;63.10
68924;DHT22;55961;52.156;20.942;2022-11-18T10:08:35;0.30;62.80
68924;DHT22;55961;52.156;20.942;2022-11-18T10:11:17;0.30;62.90
68924;DHT22;55961;52.156;20.942;2022-11-18T10:25:45;0.30;62.40
68924;DHT22;55961;52.156;20.942;2022-11-18T10:28:26;0.30;62.40
68924;DHT22;55961;52.156;20.942;2022-11-18T10:31:02;0.30;62.50
68924;DHT22;55961;52.156;20.942;2022-11-18T10:33:29;0.30;62.30
68924;DHT22;55961;52.156;20.942;2022-11-18T10:38:41;0.40;62.30
68924;DHT22;55961;52.156;20.942;2022-11-18T10:41:15;0.40;62.50
68924;DHT22;55961;52.156;20.942;2022-11-18T10:46:24;0.40;61.60
68924;DHT22;55961;52.156;20.942;2022-11-18T10:49:13;0.50;61.50
68924;DHT22;55961;52.156;20.942;2022-11-18T10:52:05;0.50;61.20
68924;DHT22;55961;52.156;20.942;2022-11-18T10:54:32;0.50;61.20
68924;DHT22;55961;52.156;20.942;2022-11-18T10:57:18;0.50;61.30
68924;DHT22;55961;52.156;20.942;2022-11-18T11:00:04;0.50;61.10
68924;DHT22;55961;52.156;20.942;2022-11-18T11:02:32;0.50;60.90
68924;DHT22;55961;52.156;20.942;2022-11-18T11:05:02;0.50;60.90
68924;DHT22;55961;52.156;20.942;2022-11-18T11:07:31;0.50;60.80
68924;DHT22;55961;52.156;20.942;2022-11-18T11:12:38;0.50;61.00
68924;DHT22;55961;52.156;20.942;2022-11-18T11:15:20;0.60;60.60
68924;DHT22;55961;52.156;20.942;2022-11-18T11:17:57;0.60;60.40
68924;DHT22;55961;52.156;20.942;2022-11-18T11:20:42;0.60;60.30
68924;DHT22;55961;52.156;20.942;2022-11-18T11:23:12;0.60;60.00
68924;DHT22;55961;52.156;20.942;2022-11-18T11:49:09;0.40;59.30
68924;DHT22;55961;52.156;20.942;2022-11-18T11:52:05;0.50;59.30
68924;DHT22;55961;52.156;20.942;2022-11-18T11:55:02;0.50;59.10
68924;DHT22;55961;52.156;20.942;2022-11-18T12:00:20;0.50;59.10
68924;DHT22;55961;52.156;20.942;2022-11-18T12:05:36;0.50;60.00
68924;DHT22;55961;52.156;20.942;2022-11-18T12:18:49;0.60;59.20
68924;DHT22;55961;52.156;20.942;2022-11-18T12:26:42;0.60;59.80
68924;DHT22;55961;52.156;20.942;2022-11-18T12:29:35;0.70;59.80
68924;DHT22;55961;52.156;20.942;2022-11-18T12:32:02;0.70;59.80
68924;DHT22;55961;52.156;20.942;2022-11-18T12:34:41;0.70;58.90
68924;DHT22;55961;52.156;20.942;2022-11-18T12:42:39;0.70;57.30
68924;DHT22;55961;52.156;20.942;2022-11-18T12:48:27;0.70;57.50
68924;DHT22;55961;52.156;20.942;2022-11-18T12:51:01;0.70;56.60
68924;DHT22;55961;52.156;20.942;2022-11-18T12:53:43;0.60;56.80
68924;DHT22;55961;52.156;20.942;2022-11-18T12:56:36;0.70;57.00
68924;DHT22;55961;52.156;20.942;2022-11-18T12:59:02;0.70;56.60
68924;DHT22;55961;52.156;20.942;2022-11-18T13:01:31;0.70;56.30
68924;DHT22;55961;52.156;20.942;2022-11-18T13:04:18;0.70;56.30
68924;DHT22;55961;52.156;20.942;2022-11-18T13:06:45;0.60;56.60
68924;DHT22;55961;52.156;20.942;2022-11-18T13:09:22;0.60;56.90
68924;DHT22;55961;52.156;20.942;2022-11-18T13:12:13;0.60;57.30
68924;DHT22;55961;52.156;20.942;2022-11-18T13:14:42;0.60;57.40
68924;DHT22;55961;52.156;20.942;2022-11-18T13:20:35;0.60;57.50
68924;DHT22;55961;52.156;20.942;2022-11-18T13:23:26;0.60;57.80
68924;DHT22;55961;52.156;20.942;2022-11-18T13:26:24;0.60;57.90
68924;DHT22;55961;52.156;20.942;2022-11-18T13:29:16;0.50;57.70
68924;DHT22;55961;52.156;20.942;2022-11-18T13:34:50;0.50;57.80
68924;DHT22;55961;52.156;20.942;2022-11-18T13:39:48;0.40;58.20
68924;DHT22;55961;52.156;20.942;2022-11-18T13:44:54;0.40;58.50
68924;DHT22;55961;52.156;20.942;2022-11-18T13:47:39;0.40;58.50
68924;DHT22;55961;52.156;20.942;2022-11-18T13:52:40;0.40;58.50
68924;DHT22;55961;52.156;20.942;2022-11-18T13:55:14;0.40;58.90
68924;DHT22;55961;52.156;20.942;2022-11-18T13:57:45;0.40;59.20
68924;DHT22;55961;52.156;20.942;2022-11-18T14:00:26;0.30;59.80
68924;DHT22;55961;52.156;20.942;2022-11-18T14:02:58;0.30;60.20
68924;DHT22;55961;52.156;20.942;2022-11-18T14:05:25;0.30;60.30
68924;DHT22;55961;52.156;20.942;2022-11-18T14:08:05;0.30;60.60
68924;DHT22;55961;52.156;20.942;2022-11-18T14:10:49;0.30;60.90
68924;DHT22;55961;52.156;20.942;2022-11-18T14:13:19;0.30;61.10
68924;DHT22;55961;52.156;20.942;2022-11-18T14:15:47;0.30;61.30
68924;DHT22;55961;52.156;20.942;2022-11-18T14:18:19;0.30;61.80
68924;DHT22;55961;52.156;20.942;2022-11-18T14:20:50;0.30;62.00
68924;DHT22;55961;52.156;20.942;2022-11-18T14:23:17;0.30;62.30
68924;DHT22;55961;52.156;20.942;2022-11-18T14:25:44;0.30;62.50
68924;DHT22;55961;52.156;20.942;2022-11-18T14:30:57;0.20;62.30
68924;DHT22;55961;52.156;20.942;2022-11-18T14:33:24;0.20;62.70
68924;DHT22;55961;52.156;20.942;2022-11-18T14:35:59;0.20;62.70
68924;DHT22;55961;52.156;20.942;2022-11-18T14:38:35;0.20;62.90
68924;DHT22;55961;52.156;20.942;2022-11-18T14:41:05;0.20;63.20
68924;DHT22;55961;52.156;20.942;2022-11-18T14:43:31;0.10;63.60
68924;DHT22;55961;52.156;20.942;2022-11-18T14:46:15;0.10;63.50
68924;DHT22;55961;52.156;20.942;2022-11-18T14:48:43;0.10;63.80
68924;DHT22;55961;52.156;20.942;2022-11-18T14:51:14;0.00;64.00
68924;DHT22;55961;52.156;20.942;2022-11-18T14:53:41;0.00;64.20
68924;DHT22;55961;52.156;20.942;2022-11-18T14:56:28;0.00;64.30
68924;DHT22;55961;52.156;20.942;2022-11-18T14:58:55;0.00;64.50
68924;DHT22;55961;52.156;20.942;2022-11-18T15:01:21;-0.10;64.70
68924;DHT22;55961;52.156;20.942;2022-11-18T15:03:52;-0.10;64.70
68924;DHT22;55961;52.156;20.942;2022-11-18T15:06:19;-0.10;65.10
68924;DHT22;55961;52.156;20.942;2022-11-18T15:08:47;-0.10;65.40
68924;DHT22;55961;52.156;20.942;2022-11-18T15:11:14;-0.10;65.70
68924;DHT22;55961;52.156;20.942;2022-11-18T15:13:41;-0.10;65.50
68924;DHT22;55961;52.156;20.942;2022-11-18T15:16:25;-0.20;65.60
68924;DHT22;55961;52.156;20.942;2022-11-18T15:18:54;-0.10;65.60
68924;DHT22;55961;52.156;20.942;2022-11-18T15:21:21;-0.20;65.80
68924;DHT22;55961;52.156;20.942;2022-11-18T15:23:47;-0.20;65.90
68924;DHT22;55961;52.156;20.942;2022-11-18T15:26:28;-0.20;66.50
68924;DHT22;55961;52.156;20.942;2022-11-18T15:28:55;-0.20;66.70
68924;DHT22;55961;52.156;20.942;2022-11-18T15:31:23;-0.20;66.80
68924;DHT22;55961;52.156;20.942;2022-11-18T15:33:49;-0.20;67.10
68924;DHT22;55961;52.156;20.942;2022-11-18T15:36:23;-0.20;67.20
68924;DHT22;55961;52.156;20.942;2022-11-18T15:38:51;-0.30;67.30
68924;DHT22;55961;52.156;20.942;2022-11-18T15:41:22;-0.30;67.40
68924;DHT22;55961;52.156;20.942;2022-11-18T15:43:49;-0.30;67.60
68924;DHT22;55961;52.156;20.942;2022-11-18T15:46:16;-0.30;67.80
68924;DHT22;55961;52.156;20.942;2022-11-18T15:48:44;-0.30;68.20
68924;DHT22;55961;52.156;20.942;2022-11-18T15:51:11;-0.30;68.00
68924;DHT22;55961;52.156;20.942;2022-11-18T15:53:37;-0.30;68.00
68924;DHT22;55961;52.156;20.942;2022-11-18T15:58:58;-0.40;67.90
68924;DHT22;55961;52.156;20.942;2022-11-18T16:01:27;-0.40;68.10
68924;DHT22;55961;52.156;20.942;2022-11-18T16:03:53;-0.50;68.30
68924;DHT22;55961;52.156;20.942;2022-11-18T16:06:20;-0.50;67.90
68924;DHT22;55961;52.156;20.942;2022-11-18T16:08:46;-0.60;68.00
68924;DHT22;55961;52.156;20.942;2022-11-18T16:11:14;-0.60;68.10
68924;DHT22;55961;52.156;20.942;2022-11-18T16:14:05;-0.60;68.10
68924;DHT22;55961;52.156;20.942;2022-11-18T16:16:32;-0.70;68.40
68924;DHT22;55961;52.156;20.942;2022-11-18T16:19:00;-0.70;68.20
68924;DHT22;55961;52.156;20.942;2022-11-18T16:21:27;-0.70;68.20
68924;DHT22;55961;52.156;20.942;2022-11-18T16:23:58;-0.70;68.00
68924;DHT22;55961;52.156;20.942;2022-11-18T16:26:25;-0.80;68.30
68924;DHT22;55961;52.156;20.942;2022-11-18T16:28:51;-0.80;68.30
68924;DHT22;55961;52.156;20.942;2022-11-18T16:31:18;-0.80;68.20
68924;DHT22;55961;52.156;20.942;2022-11-18T16:34:14;-0.90;68.20
68924;DHT22;55961;52.156;20.942;2022-11-18T16:36:42;-0.90;68.10
68924;DHT22;55961;52.156;20.942;2022-11-18T16:39:16;-0.90;68.50
68924;DHT22;55961;52.156;20.942;2022-11-18T16:41:44;-0.90;68.50
68924;DHT22;55961;52.156;20.942;2022-11-18T16:44:14;-1.00;68.70
68924;DHT22;55961;52.156;20.942;2022-11-18T16:46:49;-1.00;68.80
68924;DHT22;55961;52.156;20.942;2022-11-18T16:49:16;-1.10;68.90
68924;DHT22;55961;52.156;20.942;2022-11-18T16:51:45;-1.10;69.10
68924;DHT22;55961;52.156;20.942;2022-11-18T16:54:17;-1.10;69.30
68924;DHT22;55961;52.156;20.942;2022-11-18T16:56:45;-1.10;68.90
68924;DHT22;55961;52.156;20.942;2022-11-18T16:59:14;-1.20;69.20
68924;DHT22;55961;52.156;20.942;2022-11-18T17:01:40;-1.20;69.20
68924;DHT22;55961;52.156;20.942;2022-11-18T17:04:06;-1.20;68.70
68924;DHT22;55961;52.156;20.942;2022-11-18T17:06:32;-1.20;68.60
68924;DHT22;55961;52.156;20.942;2022-11-18T17:08:59;-1.20;68.90
68924;DHT22;55961;52.156;20.942;2022-11-18T17:11:26;-1.20;68.50
68924;DHT22;55961;52.156;20.942;2022-11-18T17:13:52;-1.30;68.10
68924;DHT22;55961;52.156;20.942;2022-11-18T17:16:19;-1.30;68.70
68924;DHT22;55961;52.156;20.942;2022-11-18T17:18:46;-1.30;69.20
68924;DHT22;55961;52.156;20.942;2022-11-18T17:21:14;-1.30;69.10
68924;DHT22;55961;52.156;20.942;2022-11-18T17:23:43;-1.30;69.20
68924;DHT22;55961;52.156;20.942;2022-11-18T17:26:11;-1.30;69.20
68924;DHT22;55961;52.156;20.942;2022-11-18T17:28:37;-1.40;68.90
68924;DHT22;55961;52.156;20.942;2022-11-18T17:31:08;-1.40;68.50
68924;DHT22;55961;52.156;20.942;2022-11-18T17:33:35;-1.40;68.40